Time;durP1;ratioP1;P1;durP2;ratioP2;P2;SDS_P1;SDS_P2;PMS_P1;PMS_P2;Temp;Humidity;BMP_temperature;BMP_pressure;BME280_temperature;BME280_humidity;BME280_pressure;Samples;Min_cycle;Max_cycle;Signal;HPM_P1;HPM_P2
2023/01/13 00:01:48;;;;;;;1.30;1.20;;;10.70;99.90;;;;;;4980591;28;20026;-52
2023/01/13 00:04:34;;;;;;;1.38;1.23;;;10.70;99.90;;;;;;4989484;28;20033;-57
2023/01/13 00:07:20;;;;;;;1.27;1.17;;;10.70;99.90;;;;;;5012119;28;20549;-58
2023/01/13 00:10:09;;;;;;;0.93;0.93;;;10.70;99.90;;;;;;5012048;28;20406;-46
2023/01/13 00:12:55;;;;;;;1.92;1.20;;;10.70;99.90;;;;;;4998891;28;20084;-52
2023/01/13 00:15:41;;;;;;;1.30;1.20;;;10.60;99.90;;;;;;5013637;28;20104;-48
2023/01/13 00:18:27;;;;;;;1.25;1.17;;;10.70;99.90;;;;;;4993643;28;20037;-50
2023/01/13 00:21:22;;;;;;;1.23;1.05;;;10.60;99.90;;;;;;4997940;28;20018;-47
2023/01/13 00:24:09;;;;;;;0.90;0.90;;;10.70;99.90;;;;;;5018475;28;20084;-53
2023/01/13 00:26:55;;;;;;;1.13;1.13;;;10.60;99.90;;;;;;5024605;28;20125;-49
2023/01/13 00:29:41;;;;;;;1.50;1.40;;;10.60;99.90;;;;;;5012874;28;20022;-55
2023/01/13 00:32:27;;;;;;;1.15;1.05;;;10.60;99.90;;;;;;5016645;28;20038;-51
2023/01/13 00:35:13;;;;;;;1.10;1.10;;;10.60;99.90;;;;;;4995961;28;20033;-57
2023/01/13 00:37:59;;;;;;;0.95;0.95;;;10.60;99.90;;;;;;5031708;28;20483;-56
2023/01/13 00:40:54;;;;;;;1.10;1.10;;;10.70;99.90;;;;;;5023137;28;20025;-46
2023/01/13 00:43:41;;;;;;;1.38;1.20;;;10.70;99.90;;;;;;5012596;28;20137;-54
2023/01/13 00:46:27;;;;;;;1.23;1.13;;;10.70;99.90;;;;;;5025392;28;20477;-50
2023/01/13 00:49:13;;;;;;;0.95;0.93;;;10.70;99.90;;;;;;5031406;28;20497;-47
2023/01/13 00:51:58;;;;;;;1.38;1.27;;;10.70;99.90;;;;;;5014389;28;20037;-53
2023/01/13 00:54:44;;;;;;;1.85;1.30;;;10.70;99.90;;;;;;5020219;28;20026;-54
2023/01/13 00:57:30;;;;;;;1.27;1.20;;;10.70;99.90;;;;;;5031249;28;20120;-56
2023/01/13 01:00:17;;;;;;;1.55;1.30;;;10.70;99.90;;;;;;5023068;28;20022;-54
2023/01/13 01:03:07;;;;;;;1.05;0.95;;;10.70;99.90;;;;;;5023719;28;20045;-55
2023/01/13 01:05:54;;;;;;;1.63;1.15;;;10.70;99.90;;;;;;5010031;28;20113;-52
2023/01/13 01:08:41;;;;;;;0.95;0.93;;;10.70;99.90;;;;;;5012465;28;20174;-54
2023/01/13 01:11:29;;;;;;;1.30;1.20;;;10.70;99.90;;;;;;4993914;28;20105;-55
2023/01/13 01:14:15;;;;;;;2.05;1.17;;;10.80;99.90;;;;;;5004659;28;20060;-52
2023/01/13 01:17:01;;;;;;;1.05;1.05;;;10.70;99.90;;;;;;5018831;28;20084;-53
2023/01/13 01:19:47;;;;;;;1.58;1.13;;;10.70;99.90;;;;;;5028127;28;20041;-54
2023/01/13 01:22:33;;;;;;;2.60;1.15;;;10.80;99.90;;;;;;5005008;28;20022;-53
2023/01/13 01:25:19;;;;;;;1.27;1.17;;;10.80;99.90;;;;;;5001792;28;20522;-52
2023/01/13 01:28:05;;;;;;;1.20;1.10;;;10.80;99.90;;;;;;5011079;28;20044;-47
2023/01/13 01:30:53;;;;;;;1.08;1.02;;;10.80;99.90;;;;;;5023606;28;20454;-53
2023/01/13 01:33:42;;;;;;;1.55;1.17;;;10.80;99.90;;;;;;5017339;28;20405;-52
2023/01/13 01:36:29;;;;;;;1.92;1.48;;;10.80;99.90;;;;;;4992419;28;20674;-55
2023/01/13 01:39:14;;;;;;;0.80;0.80;;;10.70;99.90;;;;;;4997193;28;20058;-52
2023/01/13 01:45:22;;;;;;;1.15;1.15;;;10.80;99.90;;;;;;4998440;28;20080;-54
2023/01/13 01:48:09;;;;;;;1.23;1.13;;;10.80;99.90;;;;;;5011451;28;20026;-53
2023/01/13 01:50:55;;;;;;;0.90;0.90;;;10.80;99.90;;;;;;5022123;28;20042;-49
2023/01/13 01:53:41;;;;;;;2.15;1.23;;;10.80;99.90;;;;;;5019162;28;20030;-47
2023/01/13 01:56:28;;;;;;;2.58;1.42;;;10.80;99.90;;;;;;5010177;28;20500;-50
2023/01/13 01:59:14;;;;;;;1.30;1.20;;;10.80;99.90;;;;;;5011074;28;20037;-52
2023/01/13 02:02:01;;;;;;;1.00;0.90;;;10.80;99.90;;;;;;5009075;28;20030;-50
2023/01/13 02:04:50;;;;;;;1.00;1.00;;;10.90;99.90;;;;;;5010637;28;20113;-52
2023/01/13 02:07:40;;;;;;;2.63;1.17;;;10.80;99.90;;;;;;5009974;28;20026;-51
2023/01/13 02:10:29;;;;;;;0.90;0.90;;;10.80;99.90;;;;;;5027891;28;20022;-49
2023/01/13 02:13:15;;;;;;;2.50;1.17;;;10.90;99.90;;;;;;5013100;28;20034;-50
2023/01/13 02:16:15;;;;;;;1.33;1.23;;;10.90;99.90;;;;;;5009661;28;20029;-52
2023/01/13 02:19:15;;;;;;;1.02;0.98;;;10.90;99.90;;;;;;5011955;28;20049;-54
2023/01/13 02:22:38;;;;;;;1.33;1.23;;;10.90;99.90;;;;;;5010849;28;20026;-51
2023/01/13 02:25:36;;;;;;;1.10;1.10;;;10.90;99.90;;;;;;4991517;28;20554;-52
2023/01/13 02:28:36;;;;;;;1.17;1.10;;;10.90;99.90;;;;;;5004465;28;20502;-52
2023/01/13 02:34:41;;;;;;;0.93;0.93;;;10.90;99.90;;;;;;4995955;28;20042;-51
2023/01/13 02:37:31;;;;;;;0.90;0.90;;;10.90;99.90;;;;;;4990769;28;20607;-52
2023/01/13 02:40:24;;;;;;;0.80;0.80;;;10.90;99.90;;;;;;5013809;28;20553;-50
2023/01/13 02:46:35;;;;;;;1.58;1.40;;;10.80;99.90;;;;;;5018610;28;20032;-52
2023/01/13 02:49:36;;;;;;;1.00;1.00;;;10.70;99.90;;;;;;5031085;28;20033;-51
2023/01/13 02:52:45;;;;;;;1.02;1.02;;;10.80;99.90;;;;;;5015536;28;20026;-50
2023/01/13 02:55:39;;;;;;;0.90;0.90;;;10.80;99.90;;;;;;5010344;28;20026;-49
2023/01/13 02:58:28;;;;;;;1.20;1.10;;;10.90;99.90;;;;;;4991863;28;20038;-52
2023/01/13 03:01:15;;;;;;;0.98;0.98;;;10.90;99.90;;;;;;4999943;28;20029;-49
2023/01/13 03:04:34;;;;;;;1.27;1.17;;;10.90;99.90;;;;;;5030560;28;20034;-53
2023/01/13 03:07:25;;;;;;;1.30;1.20;;;10.90;99.90;;;;;;5020230;28;20032;-49
2023/01/13 03:10:30;;;;;;;1.42;1.23;;;10.90;99.90;;;;;;5015702;28;20513;-52
2023/01/13 03:13:31;;;;;;;0.93;0.90;;;10.90;99.90;;;;;;5022079;28;20022;-50
2023/01/13 03:16:37;;;;;;;1.55;1.10;;;11.00;99.90;;;;;;5009256;28;20541;-51
2023/01/13 03:19:36;;;;;;;1.55;0.90;;;11.00;99.90;;;;;;5037599;28;20025;-51
2023/01/13 03:22:38;;;;;;;1.15;1.15;;;11.00;99.90;;;;;;5026738;28;20034;-53
2023/01/13 03:25:30;;;;;;;1.65;1.40;;;11.00;99.90;;;;;;5014537;28;20461;-51
2023/01/13 03:28:26;;;;;;;0.90;0.90;;;11.00;99.90;;;;;;5014380;28;20057;-51
2023/01/13 03:31:19;;;;;;;1.00;0.93;;;11.00;99.90;;;;;;5015118;28;20030;-49
2023/01/13 03:34:14;;;;;;;1.48;0.95;;;11.10;99.90;;;;;;5033409;28;20067;-50
2023/01/13 03:37:05;;;;;;;0.80;0.80;;;11.00;99.90;;;;;;5031758;28;20025;-50
2023/01/13 03:39:58;;;;;;;2.28;1.23;;;11.00;99.90;;;;;;5033332;28;20025;-54
2023/01/13 03:46:01;;;;;;;2.30;0.90;;;11.10;99.90;;;;;;5015378;28;20026;-54
2023/01/13 03:48:54;;;;;;;1.23;1.13;;;11.10;99.90;;;;;;4979284;28;20470;-48
2023/01/13 03:51:43;;;;;;;0.68;0.68;;;11.10;99.90;;;;;;4998091;28;20022;-49
2023/01/13 03:54:31;;;;;;;1.83;1.30;;;11.10;99.90;;;;;;5019139;28;20022;-55
2023/01/13 03:57:20;;;;;;;1.85;1.23;;;11.10;99.90;;;;;;5021597;28;20049;-52
2023/01/13 04:00:09;;;;;;;1.10;1.00;;;11.20;99.90;;;;;;4999648;28;20045;-56
2023/01/13 04:03:14;;;;;;;0.93;0.93;;;11.20;99.90;;;;;;5030852;28;20719;-57
2023/01/13 04:06:30;;;;;;;1.27;1.17;;;11.20;99.90;;;;;;5018750;28;20054;-51
2023/01/13 04:09:34;;;;;;;2.72;2.53;;;11.20;99.90;;;;;;5013939;28;20033;-53
2023/01/13 04:12:59;;;;;;;1.50;1.40;;;11.20;99.90;;;;;;5007065;28;20037;-53
2023/01/13 04:15:41;;;;;;;0.95;0.95;;;11.10;99.90;;;;;;5022972;28;20096;-55
2023/01/13 04:18:31;;;;;;;0.90;0.90;;;11.10;99.90;;;;;;5032577;28;20057;-57
2023/01/13 04:21:17;;;;;;;1.00;1.00;;;11.10;99.90;;;;;;5031906;28;20498;-55
2023/01/13 04:24:04;;;;;;;1.60;1.10;;;11.10;99.90;;;;;;5034519;28;20044;-49
2023/01/13 04:26:50;;;;;;;1.17;1.15;;;11.10;99.90;;;;;;4995659;28;20030;-50
2023/01/13 04:29:36;;;;;;;1.40;1.30;;;11.10;99.90;;;;;;4997907;28;20034;-55
2023/01/13 04:32:22;;;;;;;1.67;1.45;;;11.10;99.90;;;;;;4981322;28;20070;-54
2023/01/13 04:35:08;;;;;;;1.50;1.40;;;11.20;99.90;;;;;;4999988;28;20521;-53
2023/01/13 04:37:54;;;;;;;1.60;1.50;;;11.10;99.90;;;;;;5012768;28;20033;-53
2023/01/13 04:40:41;;;;;;;2.58;2.20;;;11.00;99.90;;;;;;5012170;28;20026;-50
2023/01/13 04:43:27;;;;;;;4.85;3.78;;;10.90;99.90;;;;;;4997880;28;20533;-55
2023/01/13 04:46:13;;;;;;;3.60;2.83;;;10.80;99.90;;;;;;5013109;28;20184;-54
2023/01/13 04:48:59;;;;;;;2.28;2.08;;;10.80;99.90;;;;;;5011738;28;20030;-53
2023/01/13 04:51:45;;;;;;;1.80;1.70;;;10.80;99.90;;;;;;5012956;28;20033;-54
2023/01/13 04:54:31;;;;;;;1.60;1.48;;;10.70;99.90;;;;;;5013378;28;20065;-54
2023/01/13 04:57:17;;;;;;;2.83;2.00;;;10.70;99.90;;;;;;5031609;28;20096;-54
2023/01/13 05:00:08;;;;;;;2.25;2.00;;;10.80;99.90;;;;;;5017186;28;20029;-54
2023/01/13 05:02:54;;;;;;;1.80;1.70;;;10.80;99.90;;;;;;5011785;28;20033;-57
2023/01/13 05:05:40;;;;;;;2.35;1.88;;;10.90;99.90;;;;;;5001791;28;20025;-56
2023/01/13 05:08:26;;;;;;;2.53;2.00;;;11.00;99.90;;;;;;5011544;28;20116;-50
2023/01/13 05:17:24;;;;;;;1.45;1.35;;;10.90;99.90;;;;;;5011582;28;20494;-56
2023/01/13 05:20:11;;;;;;;1.10;1.10;;;11.00;99.90;;;;;;4985127;28;20490;-56
2023/01/13 05:26:01;;;;;;;1.38;1.27;;;11.00;99.90;;;;;;5017219;28;20512;-56
2023/01/13 05:28:47;;;;;;;0.95;0.95;;;11.00;99.90;;;;;;5030376;28;20045;-56
2023/01/13 05:31:33;;;;;;;1.52;1.42;;;11.00;99.90;;;;;;5020585;28;20069;-51
2023/01/13 05:34:19;;;;;;;1.58;1.40;;;11.00;99.90;;;;;;5011007;28;20034;-54
2023/01/13 05:37:06;;;;;;;2.47;1.30;;;11.00;99.90;;;;;;5015121;28;20033;-54
2023/01/13 05:43:21;;;;;;;2.33;1.33;;;11.00;99.90;;;;;;5031581;28;20041;-54
2023/01/13 05:46:08;;;;;;;1.50;1.40;;;11.00;99.90;;;;;;5020616;28;20044;-55
2023/01/13 05:48:54;;;;;;;1.40;1.30;;;11.00;99.90;;;;;;5014086;28;20042;-54
2023/01/13 05:51:40;;;;;;;1.60;1.27;;;11.00;99.90;;;;;;5030125;28;20029;-57
2023/01/13 05:54:26;;;;;;;1.45;1.30;;;11.00;99.90;;;;;;5031118;28;20079;-57
2023/01/13 05:57:12;;;;;;;1.10;1.00;;;11.00;99.90;;;;;;5029697;28;20108;-55
2023/01/13 05:59:57;;;;;;;1.95;1.35;;;11.00;99.90;;;;;;5018897;28;20092;-58
2023/01/13 06:02:43;;;;;;;3.38;1.40;;;10.40;99.90;;;;;;5018810;28;20065;-65
2023/01/13 06:05:30;;;;;;;1.55;1.23;;;10.10;99.90;;;;;;5015780;28;20215;-63
2023/01/13 06:08:17;;;;;;;2.80;1.55;;;9.80;99.90;;;;;;5011871;28;20124;-64
2023/01/13 06:11:03;;;;;;;1.30;1.20;;;9.60;99.90;;;;;;4992274;28;20034;-62
2023/01/13 06:13:49;;;;;;;4.80;1.40;;;9.40;99.90;;;;;;5014166;28;20038;-62
2023/01/13 06:16:35;;;;;;;2.28;1.30;;;9.20;99.90;;;;;;4999551;28;20021;-62
2023/01/13 06:19:21;;;;;;;2.60;1.58;;;9.10;99.90;;;;;;5015372;28;20057;-58
2023/01/13 06:22:10;;;;;;;2.28;1.40;;;9.20;99.90;;;;;;5023185;28;20030;-58
2023/01/13 06:24:56;;;;;;;4.05;1.70;;;9.10;99.90;;;;;;5012803;28;20057;-58
2023/01/13 06:27:42;;;;;;;6.20;1.70;;;9.10;99.90;;;;;;5029737;28;20036;-61
2023/01/13 06:30:43;;;;;;;4.63;2.17;;;9.00;99.90;;;;;;5023209;28;20030;-59
2023/01/13 06:33:34;;;;;;;1.52;1.40;;;9.10;99.90;;;;;;5010378;28;20034;-52
2023/01/13 06:36:34;;;;;;;2.00;1.10;;;9.10;99.90;;;;;;4998990;28;20557;-57
2023/01/13 06:39:26;;;;;;;2.78;1.73;;;9.00;99.90;;;;;;5010869;28;20037;-61
2023/01/13 06:45:17;;;;;;;3.50;1.45;;;9.10;99.90;;;;;;5007466;28;20130;-51
2023/01/13 06:48:03;;;;;;;2.22;1.52;;;9.10;99.90;;;;;;5009452;28;20081;-58
2023/01/13 06:50:49;;;;;;;2.90;1.52;;;9.20;99.90;;;;;;5023580;28;20030;-55
2023/01/13 06:53:35;;;;;;;2.15;1.55;;;9.20;99.90;;;;;;5016070;28;20069;-57
2023/01/13 06:56:21;;;;;;;2.38;1.67;;;9.20;99.90;;;;;;5015870;28;20030;-55
2023/01/13 06:59:07;;;;;;;2.40;1.30;;;9.20;99.90;;;;;;5020858;28;20033;-52
2023/01/13 07:01:53;;;;;;;2.05;1.33;;;9.10;99.90;;;;;;5032659;28;20105;-51
2023/01/13 07:04:39;;;;;;;1.83;1.50;;;9.20;99.90;;;;;;5029777;28;20037;-51
2023/01/13 07:07:26;;;;;;;2.20;1.15;;;9.10;99.90;;;;;;5018469;28;20058;-54
2023/01/13 07:10:20;;;;;;;4.10;1.60;;;9.20;99.90;;;;;;5014384;28;20034;-52
2023/01/13 07:16:11;;;;;;;1.85;1.30;;;9.10;99.90;;;;;;4994324;28;20518;-54
2023/01/13 07:18:57;;;;;;;1.35;1.20;;;9.10;99.90;;;;;;5017091;28;20043;-53
2023/01/13 07:21:43;;;;;;;2.95;1.23;;;9.10;99.90;;;;;;5032333;28;20033;-51
2023/01/13 07:24:29;;;;;;;1.95;1.20;;;9.20;99.90;;;;;;5018630;28;20030;-50
2023/01/13 07:27:14;;;;;;;1.23;1.13;;;9.20;99.90;;;;;;5014182;28;20030;-52
2023/01/13 07:30:01;;;;;;;1.45;1.10;;;9.20;99.90;;;;;;5030702;28;20064;-52
2023/01/13 07:32:47;;;;;;;2.05;1.20;;;9.20;99.90;;;;;;4995340;28;20046;-56
2023/01/13 07:35:33;;;;;;;2.67;0.93;;;9.30;99.90;;;;;;4998516;28;20037;-54
2023/01/13 07:38:19;;;;;;;2.20;1.30;;;9.30;99.90;;;;;;5003225;28;20022;-53
2023/01/13 07:44:09;;;;;;;2.10;1.40;;;9.30;99.90;;;;;;5024042;28;20070;-56
2023/01/13 07:46:55;;;;;;;1.80;1.70;;;9.30;99.90;;;;;;5014669;28;20094;-53
2023/01/13 07:49:41;;;;;;;2.28;1.23;;;9.20;99.90;;;;;;5033199;28;20041;-54
2023/01/13 07:52:27;;;;;;;3.38;1.52;;;9.20;99.90;;;;;;5026992;28;20081;-54
2023/01/13 07:55:13;;;;;;;3.63;1.35;;;9.00;99.90;;;;;;5013506;28;20109;-55
2023/01/13 07:57:59;;;;;;;2.78;1.48;;;9.00;99.90;;;;;;5016539;28;20199;-54
2023/01/13 08:00:45;;;;;;;1.08;1.05;;;9.10;99.90;;;;;;5014811;28;20269;-56
2023/01/13 08:03:31;;;;;;;3.42;1.23;;;9.00;99.90;;;;;;5023821;28;20030;-56
2023/01/13 08:06:18;;;;;;;2.38;1.25;;;8.90;99.90;;;;;;5025258;28;20113;-56
2023/01/13 08:09:04;;;;;;;1.73;1.33;;;8.90;99.90;;;;;;5010045;28;20124;-55
2023/01/13 08:13:16;;;;;;;3.33;1.50;;;8.80;99.90;;;;;;5013769;28;20029;-56
2023/01/13 08:14:59;;;;;;;1.17;1.08;;;8.90;99.90;;;;;;5028758;28;20060;-56
2023/01/13 08:17:45;;;;;;;1.88;1.38;;;8.90;99.90;;;;;;5031178;28;20041;-53
2023/01/13 08:20:30;;;;;;;3.55;1.48;;;8.90;99.90;;;;;;5029550;28;20072;-56
2023/01/13 08:23:17;;;;;;;1.30;1.20;;;9.00;99.90;;;;;;5011605;28;20045;-51
2023/01/13 08:26:09;;;;;;;1.70;1.23;;;9.00;99.90;;;;;;5013469;28;20037;-56
2023/01/13 08:28:55;;;;;;;2.33;1.42;;;8.90;99.90;;;;;;5012819;28;20029;-52
2023/01/13 08:31:41;;;;;;;3.25;1.67;;;8.80;99.90;;;;;;5022244;28;20034;-50
2023/01/13 08:34:27;;;;;;;3.45;1.40;;;8.70;99.90;;;;;;5017468;28;20093;-55
2023/01/13 08:37:13;;;;;;;1.60;1.30;;;8.70;99.90;;;;;;5019827;28;20048;-53
2023/01/13 08:39:59;;;;;;;2.45;1.30;;;8.60;99.90;;;;;;5010465;28;20057;-52
2023/01/13 08:42:45;;;;;;;2.20;1.40;;;8.60;99.90;;;;;;5007101;28;20033;-52
2023/01/13 08:45:31;;;;;;;3.65;1.60;;;8.60;99.90;;;;;;5003098;28;20148;-51
2023/01/13 08:48:17;;;;;;;2.05;1.48;;;8.60;99.90;;;;;;5016587;28;20033;-53
2023/01/13 08:51:08;;;;;;;1.50;1.40;;;8.60;99.90;;;;;;5012186;28;20041;-58
2023/01/13 08:53:54;;;;;;;2.28;1.45;;;8.70;99.90;;;;;;5009385;28;20037;-49
2023/01/13 08:56:41;;;;;;;2.85;1.00;;;8.70;99.90;;;;;;5014186;28;20446;-53
2023/01/13 08:59:27;;;;;;;2.85;1.75;;;8.70;99.90;;;;;;4998783;28;20494;-55
2023/01/13 09:02:16;;;;;;;2.55;1.35;;;8.60;99.90;;;;;;5013161;28;20073;-54
2023/01/13 09:05:03;;;;;;;1.25;1.15;;;8.60;99.90;;;;;;5012630;28;20040;-54
2023/01/13 09:07:49;;;;;;;3.25;1.55;;;8.50;99.90;;;;;;4992858;28;20027;-48
2023/01/13 09:10:35;;;;;;;1.98;1.15;;;8.40;99.90;;;;;;5014522;28;20029;-49
2023/01/13 09:13:21;;;;;;;1.52;1.42;;;8.50;99.90;;;;;;5005751;28;20042;-49
2023/01/13 09:16:07;;;;;;;1.80;1.42;;;8.50;99.90;;;;;;5018370;28;20034;-48
2023/01/13 09:18:53;;;;;;;2.35;1.33;;;8.50;99.90;;;;;;5031362;28;20036;-48
2023/01/13 09:21:39;;;;;;;2.85;1.60;;;8.40;99.90;;;;;;5029234;28;20030;-49
2023/01/13 09:24:25;;;;;;;2.15;1.25;;;8.40;99.90;;;;;;5031359;28;20044;-50
2023/01/13 09:27:13;;;;;;;2.25;1.23;;;8.50;99.90;;;;;;5019826;28;20033;-50
2023/01/13 09:29:59;;;;;;;1.85;1.42;;;8.50;99.90;;;;;;5014569;28;20064;-57
2023/01/13 09:32:45;;;;;;;4.18;1.63;;;8.50;99.90;;;;;;5031217;28;20025;-55
2023/01/13 09:35:31;;;;;;;3.28;1.35;;;8.60;99.90;;;;;;5022141;28;20026;-53
2023/01/13 09:38:17;;;;;;;2.50;1.35;;;8.60;99.90;;;;;;5010790;28;20081;-57
2023/01/13 09:43:52;;;;;;;1.40;1.30;;;8.60;99.90;;;;;;5029281;28;20048;-55
2023/01/13 09:44:17;;;;;;;3.33;1.40;;;8.60;99.90;;;;;;5030316;28;20086;-54
2023/01/13 09:47:11;;;;;;;3.10;1.50;;;8.60;99.90;;;;;;5015015;28;20075;-59
2023/01/13 09:50:13;;;;;;;3.03;1.67;;;8.60;99.90;;;;;;5012446;28;20491;-56
2023/01/13 09:52:59;;;;;;;2.33;1.60;;;8.60;99.90;;;;;;5013649;28;20034;-56
2023/01/13 09:55:45;;;;;;;2.75;1.60;;;8.60;99.90;;;;;;5030533;28;20029;-58
2023/01/13 09:58:32;;;;;;;1.65;1.40;;;8.60;99.90;;;;;;5029940;28;20960;-57
2023/01/13 10:01:39;;;;;;;2.33;1.73;;;8.60;99.90;;;;;;4998454;28;20364;-54
2023/01/13 10:04:25;;;;;;;2.63;1.48;;;8.50;99.90;;;;;;4991512;28;20030;-54
2023/01/13 10:07:13;;;;;;;1.60;1.40;;;8.70;99.90;;;;;;5024025;28;20036;-52
2023/01/13 10:10:02;;;;;;;3.35;1.52;;;8.70;99.90;;;;;;5032583;28;20116;-53
2023/01/13 10:16:07;;;;;;;2.95;1.90;;;8.90;99.90;;;;;;5014227;28;20026;-55
2023/01/13 10:19:11;;;;;;;1.75;1.60;;;9.00;99.90;;;;;;5031222;28;20409;-49
2023/01/13 10:22:09;;;;;;;2.45;1.33;;;9.00;99.90;;;;;;5013103;28;20022;-49
2023/01/13 10:25:01;;;;;;;4.35;2.08;;;9.10;99.90;;;;;;5014479;28;20053;-48
2023/01/13 10:27:49;;;;;;;3.17;1.55;;;9.10;99.90;;;;;;5019213;28;20033;-53
2023/01/13 10:30:39;;;;;;;4.78;1.88;;;9.20;99.90;;;;;;5010823;28;20033;-52
2023/01/13 10:33:27;;;;;;;3.40;1.80;;;9.20;99.90;;;;;;5015680;28;20086;-53
2023/01/13 10:36:20;;;;;;;6.68;2.10;;;9.20;99.90;;;;;;5027644;28;20036;-47
2023/01/13 10:39:16;;;;;;;6.05;1.90;;;9.30;99.90;;;;;;5033816;28;20022;-49
2023/01/13 10:42:03;;;;;;;4.15;1.88;;;9.30;99.90;;;;;;4993715;28;20054;-50
2023/01/13 10:44:59;;;;;;;3.72;1.80;;;9.30;99.90;;;;;;4996803;28;20581;-55
2023/01/13 10:48:04;;;;;;;4.82;1.80;;;9.40;99.90;;;;;;5008951;28;20026;-52
2023/01/13 10:50:50;;;;;;;4.47;1.77;;;9.50;99.90;;;;;;4998749;28;20026;-51
2023/01/13 10:54:04;;;;;;;4.50;1.95;;;9.70;99.90;;;;;;5009776;28;20037;-55
2023/01/13 10:57:14;;;;;;;2.72;1.65;;;9.60;99.90;;;;;;5022667;28;20032;-52
2023/01/13 11:00:03;;;;;;;5.47;2.30;;;9.70;99.90;;;;;;5027893;28;20018;-55
2023/01/13 11:03:13;;;;;;;7.05;2.40;;;9.80;99.90;;;;;;5026898;28;20026;-49
2023/01/13 11:05:59;;;;;;;3.78;2.10;;;9.70;99.90;;;;;;5013142;28;20057;-55
2023/01/13 11:08:48;;;;;;;5.45;2.75;;;9.90;99.90;;;;;;5018117;28;20033;-55
2023/01/13 11:11:41;;;;;;;4.10;1.98;;;10.00;99.90;;;;;;5030133;28;20037;-56
2023/01/13 11:14:38;;;;;;;4.60;2.33;;;9.90;99.90;;;;;;5016333;28;20702;-55
2023/01/13 11:17:39;;;;;;;7.18;2.00;;;9.90;99.90;;;;;;5009885;28;20026;-53
2023/01/13 11:20:37;;;;;;;4.80;1.92;;;10.00;99.90;;;;;;4991611;28;20026;-51
2023/01/13 11:23:38;;;;;;;6.32;1.95;;;10.00;99.90;;;;;;4997963;28;20057;-52
2023/01/13 11:26:35;;;;;;;3.97;1.88;;;10.00;99.90;;;;;;5028426;28;20521;-53
2023/01/13 11:29:39;;;;;;;5.53;1.85;;;10.00;99.90;;;;;;5030215;28;20029;-55
2023/01/13 11:32:31;;;;;;;4.85;2.42;;;10.10;99.90;;;;;;5028515;28;20021;-53
2023/01/13 11:35:20;;;;;;;3.95;1.85;;;10.10;99.90;;;;;;5028712;28;20069;-54
2023/01/13 11:38:22;;;;;;;5.78;2.15;;;10.10;99.90;;;;;;4990871;28;20065;-55
2023/01/13 11:42:19;;;;;;;5.65;1.88;;;10.20;99.90;;;;;;5028133;28;20099;-54
2023/01/13 11:45:15;;;;;;;3.60;2.05;;;10.30;99.90;;;;;;4920678;29;20047;-55
2023/01/13 11:48:02;;;;;;;3.72;1.70;;;10.40;99.90;;;;;;4928787;28;20031;-58
2023/01/13 11:51:01;;;;;;;2.92;1.98;;;10.30;99.90;;;;;;5013151;28;20097;-58
2023/01/13 11:54:08;;;;;;;5.97;2.20;;;10.30;99.90;;;;;;5015675;28;20069;-54
2023/01/13 11:57:06;;;;;;;8.18;2.03;;;10.20;99.90;;;;;;5031052;28;20021;-54
2023/01/13 12:00:02;;;;;;;4.40;2.03;;;10.10;99.90;;;;;;5020405;28;20033;-55
2023/01/13 12:03:02;;;;;;;6.55;2.28;;;10.00;99.90;;;;;;4993633;28;20027;-54
2023/01/13 12:05:51;;;;;;;6.53;2.25;;;10.00;99.90;;;;;;5028637;28;20022;-58
2023/01/13 12:08:45;;;;;;;4.18;2.17;;;10.00;99.90;;;;;;5022587;28;20544;-56
2023/01/13 12:15:11;;;;;;;4.95;2.22;;;9.90;99.90;;;;;;5011130;28;20281;-54
2023/01/13 12:18:14;;;;;;;6.70;2.60;;;9.90;99.90;;;;;;5010524;28;20394;-51
2023/01/13 12:21:19;;;;;;;3.42;1.90;;;9.90;99.90;;;;;;5011503;28;20249;-56
2023/01/13 12:24:23;;;;;;;5.78;2.00;;;9.90;99.90;;;;;;5011995;28;20520;-54
2023/01/13 12:27:37;;;;;;;4.88;2.05;;;9.90;99.90;;;;;;5012390;28;20058;-53
2023/01/13 12:30:29;;;;;;;3.42;1.92;;;10.00;99.90;;;;;;4999945;28;20026;-55
2023/01/13 12:33:24;;;;;;;4.43;2.13;;;9.90;99.90;;;;;;5021499;28;20026;-54
2023/01/13 12:36:15;;;;;;;;;;;9.90;99.90;;;;;;5013244;28;20511;-51
2023/01/13 12:39:18;;;;;;;4.80;2.42;;;9.80;99.90;;;;;;5017523;28;19913;-52
2023/01/13 12:45:25;;;;;;;4.03;1.40;;;9.00;99.90;;;;;;5011976;28;20061;-59
2023/01/13 12:48:51;;;;;;;7.25;2.10;;;8.70;99.90;;;;;;5019192;28;20049;-54
2023/01/13 12:52:08;;;;;;;2.95;1.50;;;8.60;99.90;;;;;;4991400;28;20034;-54
2023/01/13 12:54:54;;;;;;;5.82;2.25;;;8.70;99.90;;;;;;5020767;28;20026;-54
2023/01/13 12:57:54;;;;;;;5.03;1.70;;;8.90;99.90;;;;;;5014980;28;20084;-54
2023/01/13 13:00:40;;;;;;;2.17;1.80;;;9.10;99.90;;;;;;5004490;28;20069;-55
2023/01/13 13:03:29;;;;;;;4.10;1.70;;;9.20;99.90;;;;;;5010813;28;20446;-55
2023/01/13 13:06:21;;;;;;;2.95;1.63;;;9.20;99.90;;;;;;5013457;28;20037;-55
2023/01/13 13:09:25;;;;;;;3.50;1.88;;;9.20;99.90;;;;;;5014356;28;20056;-54
2023/01/13 13:15:38;;;;;;;6.65;2.42;;;9.30;99.90;;;;;;5011835;28;20501;-55
2023/01/13 13:18:26;;;;;;;3.08;1.90;;;9.50;99.90;;;;;;5010862;28;20518;-52
2023/01/13 13:21:12;;;;;;;4.57;2.13;;;9.50;99.90;;;;;;4997397;28;20534;-53
2023/01/13 13:24:03;;;;;;;4.32;2.00;;;9.50;99.90;;;;;;5012273;28;20038;-54
2023/01/13 13:26:49;;;;;;;4.72;2.00;;;9.50;99.90;;;;;;5002172;28;20108;-51
2023/01/13 13:30:12;;;;;;;3.85;1.90;;;9.40;99.90;;;;;;5013200;28;20032;-53
2023/01/13 13:33:13;;;;;;;5.00;1.85;;;9.40;99.90;;;;;;5017018;28;20512;-52
2023/01/13 13:36:38;;;;;;;4.03;2.20;;;9.40;99.90;;;;;;4991163;28;20150;-53
2023/01/13 13:49:51;;;;;;;5.30;1.75;;;9.70;99.90;;;;;;4991783;28;20030;-55
2023/01/13 13:52:39;;;;;;;3.47;1.80;;;9.80;99.90;;;;;;4999363;28;20026;-52
2023/01/13 13:55:27;;;;;;;5.35;2.38;;;9.80;99.90;;;;;;4995313;28;20061;-52
2023/01/13 13:58:16;;;;;;;5.63;2.63;;;9.70;99.90;;;;;;5021176;28;20029;-50
2023/01/13 14:01:03;;;;;;;6.05;2.05;;;9.70;99.90;;;;;;4990889;28;20030;-54
2023/01/13 14:04:04;;;;;;;13.98;2.40;;;9.70;99.90;;;;;;5005223;28;20041;-51
2023/01/13 14:06:55;;;;;;;6.22;2.08;;;10.00;99.90;;;;;;5024118;28;20088;-53
2023/01/13 14:09:44;;;;;;;5.03;2.17;;;10.60;99.70;;;;;;5011640;28;20022;-55
2023/01/13 14:12:37;;;;;;;4.72;2.08;;;11.00;98.90;;;;;;5021927;28;20108;-51
2023/01/13 14:15:32;;;;;;;6.43;2.30;;;11.00;98.50;;;;;;5024264;28;20026;-54
2023/01/13 14:18:20;;;;;;;7.03;2.33;;;10.70;98.50;;;;;;5011356;28;20026;-49
2023/01/13 14:21:29;;;;;;;6.32;2.50;;;10.70;98.50;;;;;;5020618;28;20037;-48
2023/01/13 14:24:16;;;;;;;4.80;2.05;;;11.10;96.70;;;;;;5028945;28;20071;-47
2023/01/13 14:27:14;;;;;;;4.53;2.38;;;11.30;96.30;;;;;;5010071;28;20030;-58
2023/01/13 14:30:01;;;;;;;5.63;2.28;;;11.30;95.90;;;;;;5004831;28;20038;-57
2023/01/13 14:32:47;;;;;;;6.25;2.75;;;11.20;96.30;;;;;;5011963;28;20042;-56
2023/01/13 14:35:34;;;;;;;5.78;3.00;;;11.30;96.00;;;;;;5011909;28;20033;-51
2023/01/13 14:38:20;;;;;;;5.60;2.80;;;11.20;96.20;;;;;;4990817;28;20402;-54
2023/01/13 14:41:26;;;;;;;7.50;3.05;;;11.20;96.20;;;;;;4990758;28;20034;-54
2023/01/13 14:44:49;;;;;;;9.75;3.08;;;11.30;96.00;;;;;;5022464;28;20053;-56
2023/01/13 14:47:35;;;;;;;6.65;2.55;;;11.10;96.00;;;;;;4891896;29;20024;-56
2023/01/13 14:50:30;;;;;;;5.30;2.30;;;10.80;96.40;;;;;;5030270;28;20045;-54
2023/01/13 14:53:46;;;;;;;9.57;3.00;;;10.40;96.80;;;;;;5024041;28;20096;-55
2023/01/13 14:56:39;;;;;;;6.82;2.92;;;10.20;97.10;;;;;;5004986;28;20180;-58
2023/01/13 14:59:50;;;;;;;5.45;2.80;;;10.10;97.30;;;;;;5009197;28;20033;-55
2023/01/13 15:02:39;;;;;;;7.05;2.97;;;10.10;97.30;;;;;;4989634;28;20018;-52
2023/01/13 15:05:25;;;;;;;5.72;2.38;;;10.00;97.50;;;;;;4992699;28;20089;-55
2023/01/13 15:08:12;;;;;;;7.22;2.42;;;10.00;97.70;;;;;;5023686;28;20021;-51
2023/01/13 15:11:01;;;;;;;4.38;2.35;;;9.90;97.90;;;;;;5014031;28;20107;-57
2023/01/13 15:14:02;;;;;;;6.50;2.72;;;9.80;97.80;;;;;;5021516;28;20029;-52
2023/01/13 15:16:48;;;;;;;9.93;3.15;;;9.80;97.80;;;;;;4994743;28;20026;-56
2023/01/13 15:19:34;;;;;;;7.18;2.58;;;9.70;98.00;;;;;;5016038;28;20516;-56
2023/01/13 15:22:20;;;;;;;7.75;2.90;;;9.70;98.10;;;;;;5023021;28;20033;-57
2023/01/13 15:25:08;;;;;;;5.38;2.40;;;9.70;98.00;;;;;;5030607;28;20048;-56
2023/01/13 15:27:54;;;;;;;9.13;2.38;;;9.70;98.10;;;;;;5017617;28;20022;-58
2023/01/13 15:30:40;;;;;;;9.32;2.92;;;9.70;97.90;;;;;;5018491;28;20041;-53
2023/01/13 15:33:26;;;;;;;7.45;2.75;;;9.60;98.10;;;;;;5031746;28;20025;-56
2023/01/13 15:36:23;;;;;;;8.90;2.95;;;9.60;98.20;;;;;;5016391;28;20358;-56
2023/01/13 15:39:11;;;;;;;7.00;2.50;;;9.60;98.10;;;;;;5033466;28;20406;-56
2023/01/13 15:48:07;;;;;;;8.05;3.22;;;9.50;98.50;;;;;;5006098;28;20145;-57
2023/01/13 15:50:52;;;;;;;9.10;2.90;;;9.40;98.50;;;;;;5032793;28;20025;-53
2023/01/13 15:53:39;;;;;;;7.97;2.70;;;9.40;98.40;;;;;;5034330;28;20029;-51
2023/01/13 15:56:25;;;;;;;7.82;2.65;;;9.30;98.60;;;;;;5033293;28;20029;-54
2023/01/13 15:59:20;;;;;;;6.95;3.25;;;9.30;98.70;;;;;;5019240;28;20029;-54
2023/01/13 16:02:14;;;;;;;9.40;2.50;;;9.30;98.80;;;;;;5029726;28;20026;-55
2023/01/13 16:05:00;;;;;;;8.00;2.83;;;9.30;98.80;;;;;;5007876;28;20030;-60